메인 페이지
METAR-TAF:

METAR-TAF

공항 :

Punta Arenas, 칠레

위도: 53-00S, 경도: 070-51W, 고도: 37m

현재 날씨관측

예보는 55분 전, 18:00시(UTC)에 발표되었습니다.
서남서24kt, 순간 최대 풍속 34kt
온도 14°C
습도 47%
기압 994 hPa
시정 10km 이상
고도 1600ft 상공 구름 조금
고도 2500ft 상공 구름 보통

METAR: SCCI 161800Z 25024G34KT 9999 FEW016 SCT025 14/03 Q0994 NOSIG

시각: 15:55 (18:55 UTC)

예보

예보는 2 시간 25분 전, 16:30시(UTC)에 발표되었습니다.
예보 대상 시간: 16일 18시부터 17일 18시까지 (UTC)
서남서20kt, 순간 최대 풍속 30kt
시정 10km 이상
고도 2700ft 상공 구름 보통
일시적
16일 18시부터 16일 23시까지 (UTC)
27kt, 순간 최대 풍속 37kt
일시적
16일 18시부터 17일 00시까지 (UTC)
시정: 8000m
고도 2500ft 상공 구름 많음
약한소나기
전환 중
17일 00시부터 17일 02시까지 (UTC)
15kt
전환 중
17일 08시부터 17일 10시까지 (UTC)
서북서10kt, 순간 최대 풍속 20kt
시정: 8000m
고도 2500ft 상공 구름 많음
전환 중
17일 11시부터 17일 13시까지 (UTC)
북북서10kt
일시적
17일 14시부터 17일 16시까지 (UTC)
시정: 7000m
고도 1500ft 상공 구름 보통
고도 2500ft 상공 구름 많음
전환 중
17일 16시부터 17일 18시까지 (UTC)
서남서10kt, 순간 최대 풍속 20kt

TAF: SCCI 161630Z 1618/1718 25020G30KT 9999 SCT027 TX15/1618Z TN07/1710Z TEMPO 1618/1623 26027G37KT TEMPO 1618/1700 8000 -SHRA BKN025 BECMG 1700/1702 26015KT BECMG 1708/1710 29010G20KT 8000 BKN025 BECMG 1711/1713 34010KT TEMPO 1714/1716 7000 RA SCT015 BKN025 BECMG 1716/1718 25010G20KT

4,000개 이상의 공항 관측 자료 및 예보 (METAR 및 TAF 보고).

지도상에서 검색 가능한 기상관측소가 노란 점과 빨간 점으로 표시되어 있습니다.

기상관측소 명을 보려면 표시 위로 마우스를 이동하세요.

날씨 관측과 예보를 보려면 클릭하세요.

지도 변경 : 확대하려면 엑스 표시가 있는 녹색 버튼, 축소하려면 빼기 표시가 있는 녹색 버튼, 다음 페이지의 지도를 보려면 녹색 화살표를 클릭하세요.


METAR-TAF: